sensor_id;sensor_type;location;lat;lon;timestamp;P1;P2;P0
77411;PMS7003;66484;49.968;19.140;2023-04-29T00:01:32;42.00;36.00;25.00
77411;PMS7003;66484;49.968;19.140;2023-04-29T00:03:59;43.50;38.00;27.00
77411;PMS7003;66484;49.968;19.140;2023-04-29T00:06:27;39.75;35.50;23.00
77411;PMS7003;66484;49.968;19.140;2023-04-29T00:08:54;40.00;35.50;25.50
77411;PMS7003;66484;49.968;19.140;2023-04-29T00:11:22;45.25;39.00;27.75
77411;PMS7003;66484;49.968;19.140;2023-04-29T00:13:49;43.50;37.00;24.50
77411;PMS7003;66484;49.968;19.140;2023-04-29T00:16:16;46.75;39.25;26.75
77411;PMS7003;66484;49.968;19.140;2023-04-29T00:18:44;41.50;37.00;25.25
77411;PMS7003;66484;49.968;19.140;2023-04-29T00:21:11;51.00;39.00;26.00
77411;PMS7003;66484;49.968;19.140;2023-04-29T00:23:38;50.00;41.00;27.00
77411;PMS7003;66484;49.968;19.140;2023-04-29T00:26:06;49.50;41.50;28.00
77411;PMS7003;66484;49.968;19.140;2023-04-29T00:28:34;42.25;35.50;25.50
77411;PMS7003;66484;49.968;19.140;2023-04-29T00:31:01;35.50;34.00;24.00
77411;PMS7003;66484;49.968;19.140;2023-04-29T00:33:28;45.00;37.00;24.25
77411;PMS7003;66484;49.968;19.140;2023-04-29T00:35:56;47.00;40.50;27.75
77411;PMS7003;66484;49.968;19.140;2023-04-29T00:38:23;39.50;36.50;24.25
77411;PMS7003;66484;49.968;19.140;2023-04-29T00:40:50;41.50;37.00;25.00
77411;PMS7003;66484;49.968;19.140;2023-04-29T00:43:17;41.50;36.50;26.25
77411;PMS7003;66484;49.968;19.140;2023-04-29T00:45:45;43.00;37.25;25.25
77411;PMS7003;66484;49.968;19.140;2023-04-29T00:48:12;40.00;32.25;22.50
77411;PMS7003;66484;49.968;19.140;2023-04-29T00:50:41;42.25;36.75;25.00
77411;PMS7003;66484;49.968;19.140;2023-04-29T00:53:09;40.00;35.50;26.50
77411;PMS7003;66484;49.968;19.140;2023-04-29T00:55:39;49.25;41.25;26.00
77411;PMS7003;66484;49.968;19.140;2023-04-29T00:58:07;44.25;36.25;25.00
77411;PMS7003;66484;49.968;19.140;2023-04-29T01:00:36;45.00;39.25;26.25
77411;PMS7003;66484;49.968;19.140;2023-04-29T01:03:04;43.00;38.25;27.00
77411;PMS7003;66484;49.968;19.140;2023-04-29T01:05:31;45.00;37.25;27.00
77411;PMS7003;66484;49.968;19.140;2023-04-29T01:11:08;37.50;34.00;25.00
77411;PMS7003;66484;49.968;19.140;2023-04-29T01:13:45;44.75;38.00;27.00
77411;PMS7003;66484;49.968;19.140;2023-04-29T01:18:54;43.50;39.00;27.00
77411;PMS7003;66484;49.968;19.140;2023-04-29T01:21:24;42.75;35.75;25.75
77411;PMS7003;66484;49.968;19.140;2023-04-29T01:23:51;44.00;38.00;27.00
77411;PMS7003;66484;49.968;19.140;2023-04-29T01:26:22;45.00;39.00;25.75
77411;PMS7003;66484;49.968;19.140;2023-04-29T01:31:44;41.75;35.75;24.75
77411;PMS7003;66484;49.968;19.140;2023-04-29T01:34:22;35.75;34.00;23.50
77411;PMS7003;66484;49.968;19.140;2023-04-29T01:39:32;42.00;35.75;25.50
77411;PMS7003;66484;49.968;19.140;2023-04-29T01:45:04;46.00;38.75;27.00
77411;PMS7003;66484;49.968;19.140;2023-04-29T01:47:34;35.00;34.00;25.75
77411;PMS7003;66484;49.968;19.140;2023-04-29T01:50:02;31.75;30.25;20.50
77411;PMS7003;66484;49.968;19.140;2023-04-29T01:52:29;31.00;30.00;23.00
77411;PMS7003;66484;49.968;19.140;2023-04-29T01:54:57;35.75;31.50;21.75
77411;PMS7003;66484;49.968;19.140;2023-04-29T01:57:24;30.25;30.00;22.50
77411;PMS7003;66484;49.968;19.140;2023-04-29T01:59:51;32.50;29.00;22.50
77411;PMS7003;66484;49.968;19.140;2023-04-29T02:02:19;32.50;27.75;21.00
77411;PMS7003;66484;49.968;19.140;2023-04-29T02:04:49;30.50;28.00;20.25
77411;PMS7003;66484;49.968;19.140;2023-04-29T02:07:16;30.75;30.00;22.25
77411;PMS7003;66484;49.968;19.140;2023-04-29T02:09:43;27.50;26.25;17.00
77411;PMS7003;66484;49.968;19.140;2023-04-29T02:12:11;33.25;28.75;20.75
77411;PMS7003;66484;49.968;19.140;2023-04-29T02:14:38;28.75;25.50;18.00
77411;PMS7003;66484;49.968;19.140;2023-04-29T02:17:05;37.25;33.75;22.75
77411;PMS7003;66484;49.968;19.140;2023-04-29T02:19:32;35.50;31.25;20.25
77411;PMS7003;66484;49.968;19.140;2023-04-29T02:21:59;27.00;26.33;20.33
77411;PMS7003;66484;49.968;19.140;2023-04-29T02:24:26;17.25;15.50;9.75
77411;PMS7003;66484;49.968;19.140;2023-04-29T02:26:54;30.75;28.50;20.25
77411;PMS7003;66484;49.968;19.140;2023-04-29T02:29:21;32.50;27.75;21.75
77411;PMS7003;66484;49.968;19.140;2023-04-29T02:31:49;27.50;25.00;18.75
77411;PMS7003;66484;49.968;19.140;2023-04-29T02:34:16;16.00;14.00;11.67
77411;PMS7003;66484;49.968;19.140;2023-04-29T02:36:44;16.00;15.67;11.67
77411;PMS7003;66484;49.968;19.140;2023-04-29T02:39:11;25.67;24.67;18.00
77411;PMS7003;66484;49.968;19.140;2023-04-29T02:41:38;26.67;21.00;18.00
77411;PMS7003;66484;49.968;19.140;2023-04-29T02:44:05;32.33;24.33;19.33
77411;PMS7003;66484;49.968;19.140;2023-04-29T02:46:33;26.33;20.67;16.00
77411;PMS7003;66484;49.968;19.140;2023-04-29T02:49:01;3.67;3.00;0.00
77411;PMS7003;66484;49.968;19.140;2023-04-29T02:51:29;17.33;16.00;12.33
77411;PMS7003;66484;49.968;19.140;2023-04-29T02:53:56;18.00;15.67;12.67
77411;PMS7003;66484;49.968;19.140;2023-04-29T02:56:24;20.67;19.00;16.00
77411;PMS7003;66484;49.968;19.140;2023-04-29T02:58:51;10.00;8.00;3.00
77411;PMS7003;66484;49.968;19.140;2023-04-29T03:01:18;24.67;20.33;15.33
77411;PMS7003;66484;49.968;19.140;2023-04-29T03:03:46;22.00;17.00;13.33
77411;PMS7003;66484;49.968;19.140;2023-04-29T03:06:15;18.00;18.00;13.33
77411;PMS7003;66484;49.968;19.140;2023-04-29T03:08:42;21.33;18.67;14.67
77411;PMS7003;66484;49.968;19.140;2023-04-29T03:11:09;17.33;17.33;12.00
77411;PMS7003;66484;49.968;19.140;2023-04-29T03:13:36;18.67;17.00;12.67
77411;PMS7003;66484;49.968;19.140;2023-04-29T03:16:04;21.00;20.33;15.00
77411;PMS7003;66484;49.968;19.140;2023-04-29T03:18:32;27.00;23.67;16.67
77411;PMS7003;66484;49.968;19.140;2023-04-29T03:21:00;33.00;25.67;19.67
77411;PMS7003;66484;49.968;19.140;2023-04-29T03:23:27;23.67;23.00;17.67
77411;PMS7003;66484;49.968;19.140;2023-04-29T03:25:55;18.67;18.67;15.00
77411;PMS7003;66484;49.968;19.140;2023-04-29T03:28:22;18.00;12.67;11.00
77411;PMS7003;66484;49.968;19.140;2023-04-29T03:30:49;14.33;14.00;12.00
77411;PMS7003;66484;49.968;19.140;2023-04-29T03:33:17;15.00;13.33;12.33
77411;PMS7003;66484;49.968;19.140;2023-04-29T03:35:44;14.00;13.67;10.00
77411;PMS7003;66484;49.968;19.140;2023-04-29T03:38:11;13.67;13.67;11.33
77411;PMS7003;66484;49.968;19.140;2023-04-29T03:40:41;10.33;10.33;9.00
77411;PMS7003;66484;49.968;19.140;2023-04-29T03:43:08;14.00;13.67;11.67
77411;PMS7003;66484;49.968;19.140;2023-04-29T03:45:36;11.00;11.00;10.00
77411;PMS7003;66484;49.968;19.140;2023-04-29T03:48:03;14.00;13.67;11.33
77411;PMS7003;66484;49.968;19.140;2023-04-29T03:50:31;14.00;14.00;11.67
77411;PMS7003;66484;49.968;19.140;2023-04-29T03:52:58;16.67;14.33;12.33
77411;PMS7003;66484;49.968;19.140;2023-04-29T03:55:26;13.67;13.00;11.00
77411;PMS7003;66484;49.968;19.140;2023-04-29T03:57:52;14.67;14.00;10.33
77411;PMS7003;66484;49.968;19.140;2023-04-29T04:00:20;12.67;11.67;10.00
77411;PMS7003;66484;49.968;19.140;2023-04-29T04:02:47;17.33;16.33;12.00
77411;PMS7003;66484;49.968;19.140;2023-04-29T04:05:15;14.67;13.00;9.67
77411;PMS7003;66484;49.968;19.140;2023-04-29T04:07:42;15.67;15.33;11.67
77411;PMS7003;66484;49.968;19.140;2023-04-29T04:10:09;10.67;10.33;9.00
77411;PMS7003;66484;49.968;19.140;2023-04-29T04:12:36;13.33;11.67;10.00
77411;PMS7003;66484;49.968;19.140;2023-04-29T04:15:04;13.00;12.00;10.00
77411;PMS7003;66484;49.968;19.140;2023-04-29T04:17:31;17.33;14.00;11.00
77411;PMS7003;66484;49.968;19.140;2023-04-29T04:19:58;10.00;7.67;4.00
77411;PMS7003;66484;49.968;19.140;2023-04-29T04:22:25;10.00;10.00;9.00
77411;PMS7003;66484;49.968;19.140;2023-04-29T04:24:56;9.33;9.33;7.67
77411;PMS7003;66484;49.968;19.140;2023-04-29T04:27:23;9.00;9.00;8.67
77411;PMS7003;66484;49.968;19.140;2023-04-29T04:29:53;11.67;8.67;7.33
77411;PMS7003;66484;49.968;19.140;2023-04-29T04:32:21;12.67;12.67;11.00
77411;PMS7003;66484;49.968;19.140;2023-04-29T04:34:49;13.33;11.00;9.00
77411;PMS7003;66484;49.968;19.140;2023-04-29T04:37:16;14.00;13.00;10.33
77411;PMS7003;66484;49.968;19.140;2023-04-29T04:39:44;10.00;10.00;7.33
77411;PMS7003;66484;49.968;19.140;2023-04-29T04:42:11;11.00;11.00;9.00
77411;PMS7003;66484;49.968;19.140;2023-04-29T04:44:39;10.67;5.00;4.00
77411;PMS7003;66484;49.968;19.140;2023-04-29T04:47:06;14.00;11.00;9.33
77411;PMS7003;66484;49.968;19.140;2023-04-29T04:49:35;13.00;11.67;9.00
77411;PMS7003;66484;49.968;19.140;2023-04-29T04:52:03;15.67;12.00;9.67
77411;PMS7003;66484;49.968;19.140;2023-04-29T04:54:31;10.33;10.00;7.00
77411;PMS7003;66484;49.968;19.140;2023-04-29T04:56:57;14.33;12.00;10.00
77411;PMS7003;66484;49.968;19.140;2023-04-29T04:59:25;11.00;11.00;7.00
77411;PMS7003;66484;49.968;19.140;2023-04-29T05:01:52;15.67;13.00;10.67
77411;PMS7003;66484;49.968;19.140;2023-04-29T05:04:19;15.00;13.00;10.67
77411;PMS7003;66484;49.968;19.140;2023-04-29T05:06:47;16.33;14.00;11.00
77411;PMS7003;66484;49.968;19.140;2023-04-29T05:09:14;13.67;13.67;12.00
77411;PMS7003;66484;49.968;19.140;2023-04-29T05:11:42;13.67;12.00;7.00
77411;PMS7003;66484;49.968;19.140;2023-04-29T05:14:09;10.67;10.67;8.33
77411;PMS7003;66484;49.968;19.140;2023-04-29T05:16:36;13.67;13.67;10.00
77411;PMS7003;66484;49.968;19.140;2023-04-29T05:19:04;11.33;11.33;7.67
77411;PMS7003;66484;49.968;19.140;2023-04-29T05:21:31;13.00;13.00;11.00
77411;PMS7003;66484;49.968;19.140;2023-04-29T05:23:58;11.33;11.33;8.33
77411;PMS7003;66484;49.968;19.140;2023-04-29T05:26:25;13.67;12.33;10.00
77411;PMS7003;66484;49.968;19.140;2023-04-29T05:28:53;16.67;16.67;11.33
77411;PMS7003;66484;49.968;19.140;2023-04-29T05:31:20;18.33;17.33;13.00
77411;PMS7003;66484;49.968;19.140;2023-04-29T05:33:48;19.00;17.67;13.33
77411;PMS7003;66484;49.968;19.140;2023-04-29T05:36:15;12.33;12.33;10.33
77411;PMS7003;66484;49.968;19.140;2023-04-29T05:38:42;12.67;11.67;9.33
77411;PMS7003;66484;49.968;19.140;2023-04-29T05:41:10;16.33;15.33;11.67
77411;PMS7003;66484;49.968;19.140;2023-04-29T05:43:40;14.00;14.00;12.00
77411;PMS7003;66484;49.968;19.140;2023-04-29T05:46:07;15.00;15.00;10.33
77411;PMS7003;66484;49.968;19.140;2023-04-29T05:48:34;15.33;14.33;11.33
77411;PMS7003;66484;49.968;19.140;2023-04-29T05:51:01;15.00;14.67;11.00
77411;PMS7003;66484;49.968;19.140;2023-04-29T05:53:29;17.00;16.00;13.67
77411;PMS7003;66484;49.968;19.140;2023-04-29T05:55:57;10.00;9.00;9.00
77411;PMS7003;66484;49.968;19.140;2023-04-29T05:58:24;14.67;14.00;12.00
77411;PMS7003;66484;49.968;19.140;2023-04-29T06:00:52;20.33;17.00;13.00
77411;PMS7003;66484;49.968;19.140;2023-04-29T06:03:19;16.33;16.33;13.00
77411;PMS7003;66484;49.968;19.140;2023-04-29T06:05:46;14.67;14.67;13.00
77411;PMS7003;66484;49.968;19.140;2023-04-29T06:08:14;15.67;15.00;12.33
77411;PMS7003;66484;49.968;19.140;2023-04-29T06:10:41;15.67;12.67;11.33
77411;PMS7003;66484;49.968;19.140;2023-04-29T06:13:09;19.33;16.67;12.00
77411;PMS7003;66484;49.968;19.140;2023-04-29T06:15:36;16.00;14.33;10.67
77411;PMS7003;66484;49.968;19.140;2023-04-29T06:18:03;13.00;11.67;10.00
77411;PMS7003;66484;49.968;19.140;2023-04-29T06:20:30;14.67;14.33;11.67
77411;PMS7003;66484;49.968;19.140;2023-04-29T06:22:58;14.33;14.33;12.33
77411;PMS7003;66484;49.968;19.140;2023-04-29T06:25:25;18.00;18.00;13.67
77411;PMS7003;66484;49.968;19.140;2023-04-29T06:27:52;15.33;14.67;11.33
77411;PMS7003;66484;49.968;19.140;2023-04-29T06:30:21;14.00;13.33;12.00
77411;PMS7003;66484;49.968;19.140;2023-04-29T06:32:49;16.00;14.33;10.00
77411;PMS7003;66484;49.968;19.140;2023-04-29T06:35:16;16.00;13.33;11.00
77411;PMS7003;66484;49.968;19.140;2023-04-29T06:37:44;18.33;17.67;14.33
77411;PMS7003;66484;49.968;19.140;2023-04-29T06:40:13;19.00;17.33;13.33
77411;PMS7003;66484;49.968;19.140;2023-04-29T06:42:41;16.33;13.00;11.33
77411;PMS7003;66484;49.968;19.140;2023-04-29T06:45:09;15.33;15.33;11.00
77411;PMS7003;66484;49.968;19.140;2023-04-29T06:47:37;15.33;15.33;14.00
77411;PMS7003;66484;49.968;19.140;2023-04-29T06:50:04;16.00;15.33;11.00
77411;PMS7003;66484;49.968;19.140;2023-04-29T06:52:32;14.00;14.00;12.00
77411;PMS7003;66484;49.968;19.140;2023-04-29T06:55:00;15.33;15.33;13.00
77411;PMS7003;66484;49.968;19.140;2023-04-29T06:57:27;18.33;18.33;14.00
77411;PMS7003;66484;49.968;19.140;2023-04-29T06:59:54;15.67;15.33;12.33
77411;PMS7003;66484;49.968;19.140;2023-04-29T07:02:21;16.67;16.67;13.67
77411;PMS7003;66484;49.968;19.140;2023-04-29T07:04:49;17.33;15.33;12.67
77411;PMS7003;66484;49.968;19.140;2023-04-29T07:07:17;18.67;17.67;12.33
77411;PMS7003;66484;49.968;19.140;2023-04-29T07:09:47;19.00;17.67;14.00
77411;PMS7003;66484;49.968;19.140;2023-04-29T07:12:18;16.67;13.00;10.00
77411;PMS7003;66484;49.968;19.140;2023-04-29T07:14:45;16.00;15.00;10.00
77411;PMS7003;66484;49.968;19.140;2023-04-29T07:17:12;20.67;18.00;12.33
77411;PMS7003;66484;49.968;19.140;2023-04-29T07:19:39;20.00;18.00;12.33
77411;PMS7003;66484;49.968;19.140;2023-04-29T07:22:07;19.00;19.00;14.00
77411;PMS7003;66484;49.968;19.140;2023-04-29T07:24:34;14.00;13.67;10.67
77411;PMS7003;66484;49.968;19.140;2023-04-29T07:27:01;15.00;12.00;8.00
77411;PMS7003;66484;49.968;19.140;2023-04-29T07:29:28;14.67;14.67;11.00
77411;PMS7003;66484;49.968;19.140;2023-04-29T07:31:55;14.67;14.00;10.00
77411;PMS7003;66484;49.968;19.140;2023-04-29T07:34:22;5.00;1.00;0.00
77411;PMS7003;66484;49.968;19.140;2023-04-29T07:36:50;13.67;12.33;8.67
77411;PMS7003;66484;49.968;19.140;2023-04-29T07:39:17;13.67;12.33;9.67
77411;PMS7003;66484;49.968;19.140;2023-04-29T07:41:44;13.00;11.00;7.00
77411;PMS7003;66484;49.968;19.140;2023-04-29T07:44:11;9.33;6.00;5.33
77411;PMS7003;66484;49.968;19.140;2023-04-29T07:46:39;9.00;8.00;6.00
77411;PMS7003;66484;49.968;19.140;2023-04-29T07:49:06;7.00;6.75;5.00
77411;PMS7003;66484;49.968;19.140;2023-04-29T07:51:33;11.00;10.00;7.25
77411;PMS7003;66484;49.968;19.140;2023-04-29T07:54:00;8.00;8.00;7.00
77411;PMS7003;66484;49.968;19.140;2023-04-29T07:56:28;7.25;7.25;6.50
77411;PMS7003;66484;49.968;19.140;2023-04-29T07:58:55;7.00;7.00;6.00
77411;PMS7003;66484;49.968;19.140;2023-04-29T08:01:22;9.50;8.50;7.00
77411;PMS7003;66484;49.968;19.140;2023-04-29T08:03:49;9.00;9.00;7.25
77411;PMS7003;66484;49.968;19.140;2023-04-29T08:06:17;10.50;8.00;7.50
77411;PMS7003;66484;49.968;19.140;2023-04-29T08:08:47;11.75;10.50;7.75
77411;PMS7003;66484;49.968;19.140;2023-04-29T08:11:16;9.75;9.75;7.00
77411;PMS7003;66484;49.968;19.140;2023-04-29T08:13:44;10.75;8.50;7.75
77411;PMS7003;66484;49.968;19.140;2023-04-29T08:16:11;12.50;12.00;9.00
77411;PMS7003;66484;49.968;19.140;2023-04-29T08:18:39;10.50;10.50;8.00
77411;PMS7003;66484;49.968;19.140;2023-04-29T08:21:06;9.50;9.25;7.75
77411;PMS7003;66484;49.968;19.140;2023-04-29T08:23:33;11.75;9.75;8.00
77411;PMS7003;66484;49.968;19.140;2023-04-29T08:26:01;11.00;9.00;8.00
77411;PMS7003;66484;49.968;19.140;2023-04-29T08:28:29;8.00;8.00;5.50
77411;PMS7003;66484;49.968;19.140;2023-04-29T08:30:56;10.50;10.50;8.75
77411;PMS7003;66484;49.968;19.140;2023-04-29T08:33:23;11.00;11.00;8.25
77411;PMS7003;66484;49.968;19.140;2023-04-29T08:35:56;12.00;11.00;9.00
77411;PMS7003;66484;49.968;19.140;2023-04-29T08:38:24;11.00;9.75;8.00
77411;PMS7003;66484;49.968;19.140;2023-04-29T08:40:52;11.75;11.75;8.50
77411;PMS7003;66484;49.968;19.140;2023-04-29T08:43:20;12.00;11.00;8.00
77411;PMS7003;66484;49.968;19.140;2023-04-29T08:45:48;16.75;12.50;9.50
77411;PMS7003;66484;49.968;19.140;2023-04-29T08:48:16;11.50;11.50;8.00
77411;PMS7003;66484;49.968;19.140;2023-04-29T08:50:43;16.75;14.75;10.50
77411;PMS7003;66484;49.968;19.140;2023-04-29T08:53:12;12.50;11.25;7.25
77411;PMS7003;66484;49.968;19.140;2023-04-29T08:55:46;15.00;15.00;10.50
77411;PMS7003;66484;49.968;19.140;2023-04-29T08:58:14;18.25;13.00;11.00
77411;PMS7003;66484;49.968;19.140;2023-04-29T09:00:42;21.50;16.50;11.00
77411;PMS7003;66484;49.968;19.140;2023-04-29T09:05:41;16.75;13.00;10.25
77411;PMS7003;66484;49.968;19.140;2023-04-29T09:08:09;12.00;12.00;9.25
77411;PMS7003;66484;49.968;19.140;2023-04-29T09:10:38;15.25;14.25;12.00
77411;PMS7003;66484;49.968;19.140;2023-04-29T09:13:08;13.25;13.00;11.00
77411;PMS7003;66484;49.968;19.140;2023-04-29T09:15:36;9.50;9.50;8.00
77411;PMS7003;66484;49.968;19.140;2023-04-29T09:18:05;13.00;12.25;11.00
77411;PMS7003;66484;49.968;19.140;2023-04-29T09:20:32;10.75;10.25;8.00
77411;PMS7003;66484;49.968;19.140;2023-04-29T09:23:00;15.00;12.00;9.25
77411;PMS7003;66484;49.968;19.140;2023-04-29T09:25:29;10.75;10.75;8.75
77411;PMS7003;66484;49.968;19.140;2023-04-29T09:27:57;13.25;12.25;9.00
77411;PMS7003;66484;49.968;19.140;2023-04-29T09:30:24;13.25;12.50;9.00
77411;PMS7003;66484;49.968;19.140;2023-04-29T09:33:02;12.00;11.75;7.00
77411;PMS7003;66484;49.968;19.140;2023-04-29T09:35:34;10.50;10.25;9.00
77411;PMS7003;66484;49.968;19.140;2023-04-29T09:38:11;10.00;8.75;6.50
77411;PMS7003;66484;49.968;19.140;2023-04-29T09:40:40;12.50;12.50;10.00
77411;PMS7003;66484;49.968;19.140;2023-04-29T09:43:23;10.75;10.75;8.75
77411;PMS7003;66484;49.968;19.140;2023-04-29T09:45:51;8.75;8.75;7.00
77411;PMS7003;66484;49.968;19.140;2023-04-29T09:48:18;9.50;9.50;8.00
77411;PMS7003;66484;49.968;19.140;2023-04-29T09:50:57;13.25;13.25;9.00
77411;PMS7003;66484;49.968;19.140;2023-04-29T09:53:27;12.50;12.25;9.50
77411;PMS7003;66484;49.968;19.140;2023-04-29T09:58:27;9.25;9.25;8.00
77411;PMS7003;66484;49.968;19.140;2023-04-29T10:01:04;9.25;8.50;7.00
77411;PMS7003;66484;49.968;19.140;2023-04-29T10:03:32;10.75;9.75;8.00
77411;PMS7003;66484;49.968;19.140;2023-04-29T10:06:01;12.50;11.25;9.25
77411;PMS7003;66484;49.968;19.140;2023-04-29T10:08:30;12.25;10.50;7.25
77411;PMS7003;66484;49.968;19.140;2023-04-29T10:10:58;10.00;10.00;8.00
77411;PMS7003;66484;49.968;19.140;2023-04-29T10:13:30;12.50;11.75;9.00
77411;PMS7003;66484;49.968;19.140;2023-04-29T10:18:48;11.75;9.75;7.75
77411;PMS7003;66484;49.968;19.140;2023-04-29T10:21:30;8.25;8.25;6.25
77411;PMS7003;66484;49.968;19.140;2023-04-29T10:23:58;12.00;12.00;9.75
77411;PMS7003;66484;49.968;19.140;2023-04-29T10:26:27;11.00;10.00;7.00
77411;PMS7003;66484;49.968;19.140;2023-04-29T10:28:55;15.50;13.50;10.25
77411;PMS7003;66484;49.968;19.140;2023-04-29T10:31:26;12.25;12.25;9.75
77411;PMS7003;66484;49.968;19.140;2023-04-29T10:33:54;10.25;9.25;7.50
77411;PMS7003;66484;49.968;19.140;2023-04-29T10:36:27;12.00;11.00;9.75
77411;PMS7003;66484;49.968;19.140;2023-04-29T10:38:57;14.00;14.00;11.00
77411;PMS7003;66484;49.968;19.140;2023-04-29T10:41:26;12.25;10.50;8.50
77411;PMS7003;66484;49.968;19.140;2023-04-29T10:43:57;10.25;10.25;8.75
77411;PMS7003;66484;49.968;19.140;2023-04-29T10:46:26;10.50;10.50;7.50
77411;PMS7003;66484;49.968;19.140;2023-04-29T10:48:59;12.00;12.00;9.00
77411;PMS7003;66484;49.968;19.140;2023-04-29T10:51:30;11.00;9.00;8.00
77411;PMS7003;66484;49.968;19.140;2023-04-29T10:54:12;11.00;10.00;8.50
77411;PMS7003;66484;49.968;19.140;2023-04-29T10:56:46;9.75;9.50;8.00
77411;PMS7003;66484;49.968;19.140;2023-04-29T10:59:18;10.50;10.50;9.00
77411;PMS7003;66484;49.968;19.140;2023-04-29T11:01:49;14.00;13.75;11.00
77411;PMS7003;66484;49.968;19.140;2023-04-29T11:04:21;12.50;12.50;9.75
77411;PMS7003;66484;49.968;19.140;2023-04-29T11:06:52;11.50;11.50;8.50
77411;PMS7003;66484;49.968;19.140;2023-04-29T11:09:23;18.00;13.25;10.25
77411;PMS7003;66484;49.968;19.140;2023-04-29T11:14:24;6.00;5.75;4.50
77411;PMS7003;66484;49.968;19.140;2023-04-29T11:17:03;13.00;13.00;8.75
77411;PMS7003;66484;49.968;19.140;2023-04-29T11:19:41;20.67;20.67;13.33
77411;PMS7003;66484;49.968;19.140;2023-04-29T11:24:50;16.67;15.67;13.33
77411;PMS7003;66484;49.968;19.140;2023-04-29T11:27:22;23.33;22.00;17.67
77411;PMS7003;66484;49.968;19.140;2023-04-29T11:29:54;21.33;19.00;15.33
77411;PMS7003;66484;49.968;19.140;2023-04-29T11:32:28;22.33;21.67;17.00
77411;PMS7003;66484;49.968;19.140;2023-04-29T11:35:12;19.00;18.00;14.67
77411;PMS7003;66484;49.968;19.140;2023-04-29T11:37:41;10.00;10.00;7.33
77411;PMS7003;66484;49.968;19.140;2023-04-29T11:40:10;21.33;21.33;17.00
77411;PMS7003;66484;49.968;19.140;2023-04-29T11:42:45;30.00;27.00;18.33
77411;PMS7003;66484;49.968;19.140;2023-04-29T11:45:17;20.00;20.00;15.67
77411;PMS7003;66484;49.968;19.140;2023-04-29T11:47:45;22.33;20.33;15.00
77411;PMS7003;66484;49.968;19.140;2023-04-29T11:50:14;24.67;20.33;14.33
77411;PMS7003;66484;49.968;19.140;2023-04-29T11:52:43;24.67;20.00;16.00
77411;PMS7003;66484;49.968;19.140;2023-04-29T11:55:13;20.33;18.33;16.33
77411;PMS7003;66484;49.968;19.140;2023-04-29T11:57:40;29.67;27.33;19.67
77411;PMS7003;66484;49.968;19.140;2023-04-29T12:00:11;28.67;25.67;18.00
77411;PMS7003;66484;49.968;19.140;2023-04-29T12:02:43;29.00;27.33;18.33
77411;PMS7003;66484;49.968;19.140;2023-04-29T12:05:11;29.00;27.67;21.00
77411;PMS7003;66484;49.968;19.140;2023-04-29T12:07:39;31.33;30.33;22.00
77411;PMS7003;66484;49.968;19.140;2023-04-29T12:10:10;34.67;31.00;21.00
77411;PMS7003;66484;49.968;19.140;2023-04-29T12:12:38;30.00;26.33;19.67
77411;PMS7003;66484;49.968;19.140;2023-04-29T12:15:10;21.67;21.67;17.00
77411;PMS7003;66484;49.968;19.140;2023-04-29T12:17:38;28.67;26.00;18.33
77411;PMS7003;66484;49.968;19.140;2023-04-29T12:20:06;29.33;27.00;21.00
77411;PMS7003;66484;49.968;19.140;2023-04-29T12:22:38;28.33;24.00;17.67
77411;PMS7003;66484;49.968;19.140;2023-04-29T12:25:05;26.33;25.33;18.67
77411;PMS7003;66484;49.968;19.140;2023-04-29T12:27:34;26.00;23.33;18.00
77411;PMS7003;66484;49.968;19.140;2023-04-29T12:30:05;29.00;25.67;20.33
77411;PMS7003;66484;49.968;19.140;2023-04-29T12:32:34;17.67;17.67;13.00
77411;PMS7003;66484;49.968;19.140;2023-04-29T12:35:02;24.00;24.00;17.67
77411;PMS7003;66484;49.968;19.140;2023-04-29T12:37:30;26.00;25.33;18.00
77411;PMS7003;66484;49.968;19.140;2023-04-29T12:39:58;29.33;26.00;20.00
77411;PMS7003;66484;49.968;19.140;2023-04-29T12:42:30;24.33;22.00;14.33
77411;PMS7003;66484;49.968;19.140;2023-04-29T12:44:59;28.67;26.00;18.00
77411;PMS7003;66484;49.968;19.140;2023-04-29T12:47:31;22.00;21.00;18.00
77411;PMS7003;66484;49.968;19.140;2023-04-29T12:50:01;27.33;24.67;19.00
77411;PMS7003;66484;49.968;19.140;2023-04-29T12:52:28;28.00;26.33;19.67
77411;PMS7003;66484;49.968;19.140;2023-04-29T12:54:55;29.00;25.67;18.67
77411;PMS7003;66484;49.968;19.140;2023-04-29T12:57:23;26.33;22.33;14.33
77411;PMS7003;66484;49.968;19.140;2023-04-29T12:59:52;21.00;21.00;17.67
77411;PMS7003;66484;49.968;19.140;2023-04-29T13:02:19;26.00;24.67;20.00
77411;PMS7003;66484;49.968;19.140;2023-04-29T13:04:47;26.25;25.00;18.75
77411;PMS7003;66484;49.968;19.140;2023-04-29T13:07:14;27.33;22.67;17.33
77411;PMS7003;66484;49.968;19.140;2023-04-29T13:09:41;26.67;26.67;20.33
77411;PMS7003;66484;49.968;19.140;2023-04-29T13:12:09;28.67;24.67;20.00
77411;PMS7003;66484;49.968;19.140;2023-04-29T13:14:36;26.33;24.00;20.00
77411;PMS7003;66484;49.968;19.140;2023-04-29T13:17:03;22.33;20.33;13.67
77411;PMS7003;66484;49.968;19.140;2023-04-29T13:19:31;10.00;10.00;8.67
77411;PMS7003;66484;49.968;19.140;2023-04-29T13:22:15;24.00;22.33;17.33
77411;PMS7003;66484;49.968;19.140;2023-04-29T13:24:43;26.67;22.67;16.00
77411;PMS7003;66484;49.968;19.140;2023-04-29T13:27:10;16.00;14.67;8.33
77411;PMS7003;66484;49.968;19.140;2023-04-29T13:29:37;25.67;20.67;15.67
77411;PMS7003;66484;49.968;19.140;2023-04-29T13:32:05;23.33;20.33;16.00
77411;PMS7003;66484;49.968;19.140;2023-04-29T13:34:32;31.00;26.33;18.33
77411;PMS7003;66484;49.968;19.140;2023-04-29T13:37:00;27.33;23.67;18.33
77411;PMS7003;66484;49.968;19.140;2023-04-29T13:39:28;28.67;27.00;19.00
77411;PMS7003;66484;49.968;19.140;2023-04-29T13:41:55;21.67;21.67;15.00
77411;PMS7003;66484;49.968;19.140;2023-04-29T13:44:25;22.00;21.00;17.67
77411;PMS7003;66484;49.968;19.140;2023-04-29T13:47:11;24.00;23.00;17.00
77411;PMS7003;66484;49.968;19.140;2023-04-29T13:49:39;18.00;15.67;13.33
77411;PMS7003;66484;49.968;19.140;2023-04-29T13:52:27;17.00;17.00;14.33
77411;PMS7003;66484;49.968;19.140;2023-04-29T13:54:59;18.67;17.33;12.00
77411;PMS7003;66484;49.968;19.140;2023-04-29T13:57:46;19.75;19.25;13.50
77411;PMS7003;66484;49.968;19.140;2023-04-29T14:00:16;12.75;12.50;9.50
77411;PMS7003;66484;49.968;19.140;2023-04-29T14:02:46;16.00;13.50;10.25
77411;PMS7003;66484;49.968;19.140;2023-04-29T14:05:24;8.00;8.00;7.50
77411;PMS7003;66484;49.968;19.140;2023-04-29T14:07:51;13.25;10.25;8.75
77411;PMS7003;66484;49.968;19.140;2023-04-29T14:10:19;16.25;16.25;12.00
77411;PMS7003;66484;49.968;19.140;2023-04-29T14:12:46;12.25;11.25;8.75
77411;PMS7003;66484;49.968;19.140;2023-04-29T14:15:14;14.50;9.75;6.50